Terminal Aerodrome Forecast
Issued by NWS

Home | Current Version | Previous Version | Text Only | Print | Product List | Glossary On
Versions: 1 2 3 4 5 6 7 8 9 10 11 12 13 14 15 16 17 18
000
FTUS43 KDVN 261120
TAFCID
TAF
KCID 261120Z 2612/2712 04004KT P6SM VCSH OVC100
     FM261600 28006KT P6SM VCSH BKN035 OVC050
     FM261800 29010KT P6SM OVC025
     FM262300 32010KT P6SM BKN040=

USA.gov is the U.S. government's official web portal to all federal, state and local government web resources and services.